createdAt,value
2022-10-15T00:00:15.747Z,100864.63
2022-10-15T00:02:43.441Z,100866.81
2022-10-15T00:05:13.188Z,100868.38
2022-10-15T00:07:43.275Z,100876.38
2022-10-15T00:10:10.882Z,100872.94
2022-10-15T00:12:40.253Z,100863.88
2022-10-15T00:15:09.069Z,100858.16
2022-10-15T00:17:37.339Z,100869.47
2022-10-15T00:20:08.156Z,100865.31
2022-10-15T00:22:36.273Z,100876.47
2022-10-15T00:25:12.052Z,100873.19
2022-10-15T00:27:39.984Z,100873.00
2022-10-15T00:30:08.541Z,100876.03
2022-10-15T00:32:38.243Z,100867.53
2022-10-15T00:35:07.831Z,100876.50
2022-10-15T00:37:35.404Z,100870.53
2022-10-15T00:42:32.982Z,100876.47
2022-10-15T00:45:00.791Z,100873.78
2022-10-15T00:47:37.808Z,100877.28
2022-10-15T00:53:20.209Z,100866.63
2022-10-15T00:55:51.262Z,100863.16
2022-10-15T00:58:27.904Z,100863.06
2022-10-15T01:00:56.378Z,100851.22
2022-10-15T01:03:24.265Z,100858.75
2022-10-15T01:05:53.685Z,100854.34
2022-10-15T01:08:22.680Z,100848.25
2022-10-15T01:11:27.804Z,100859.00
2022-10-15T01:14:26.126Z,100858.31
2022-10-15T01:17:18.773Z,100860.13
2022-10-15T01:20:05.129Z,100853.94
2022-10-15T01:23:09.990Z,100852.69
2022-10-15T01:26:02.577Z,100844.03
2022-10-15T01:28:32.907Z,100846.00
2022-10-15T01:31:20.678Z,100839.16
2022-10-15T01:34:07.874Z,100836.66
2022-10-15T01:36:47.535Z,100836.25
2022-10-15T01:39:54.450Z,100840.34
2022-10-15T01:42:39.201Z,100839.63
2022-10-15T01:45:10.712Z,100830.84
2022-10-15T01:47:56.746Z,100832.72
2022-10-15T01:50:42.917Z,100837.88
2022-10-15T01:53:27.037Z,100827.34
2022-10-15T01:55:59.275Z,100823.97
2022-10-15T01:58:28.917Z,100829.44
2022-10-15T02:00:58.746Z,100811.34
2022-10-15T02:03:27.213Z,100811.34
2022-10-15T02:06:07.515Z,100808.56
2022-10-15T02:08:51.916Z,100805.91
2022-10-15T02:11:20.054Z,100806.56
2022-10-15T02:14:07.682Z,100798.34
2022-10-15T02:16:52.378Z,100786.06
2022-10-15T02:19:47.385Z,100798.47
2022-10-15T02:22:25.539Z,100792.97
2022-10-15T02:25:02.155Z,100797.31
2022-10-15T02:27:33.067Z,100795.56
2022-10-15T02:30:10.800Z,100797.59
2022-10-15T02:32:53.877Z,100788.47
2022-10-15T02:35:23.916Z,100781.56
2022-10-15T02:37:54.148Z,100783.59
2022-10-15T02:40:29.637Z,100783.53
2022-10-15T02:42:57.810Z,100780.22
2022-10-15T02:45:29.229Z,100787.19
2022-10-15T02:47:56.878Z,100785.97
2022-10-15T02:50:25.312Z,100778.81
2022-10-15T02:52:53.164Z,100784.06
2022-10-15T02:55:20.717Z,100782.19
2022-10-15T02:57:48.363Z,100788.22
2022-10-15T03:00:27.728Z,100792.53
2022-10-15T03:03:06.905Z,100780.06
2022-10-15T03:05:50.134Z,100772.56
2022-10-15T03:08:20.846Z,100772.75
2022-10-15T03:10:48.923Z,100781.22
2022-10-15T03:13:16.555Z,100779.56
2022-10-15T03:15:49.487Z,100768.50
2022-10-15T03:18:17.248Z,100763.72
2022-10-15T03:20:56.446Z,100756.38
2022-10-15T03:23:24.849Z,100782.03
2022-10-15T03:26:03.654Z,100760.16
2022-10-15T03:28:31.376Z,100761.63
2022-10-15T03:31:19.122Z,100749.88
2022-10-15T03:33:50.649Z,100755.69
2022-10-15T03:36:21.575Z,100755.78
2022-10-15T03:38:49.774Z,100761.63
2022-10-15T03:41:19.464Z,100755.25
2022-10-15T03:43:48.724Z,100747.25
2022-10-15T03:46:16.754Z,100750.66
2022-10-15T03:48:50.485Z,100749.25
2022-10-15T03:51:22.733Z,100754.00
2022-10-15T03:54:01.985Z,100742.44
2022-10-15T03:56:29.727Z,100751.03
2022-10-15T03:59:13.317Z,100740.91
2022-10-15T04:01:40.829Z,100738.31
2022-10-15T04:04:11.944Z,100752.66
2022-10-15T04:06:40.188Z,100736.09
2022-10-15T04:09:12.338Z,100743.91
2022-10-15T04:11:40.704Z,100739.06
2022-10-15T04:14:08.480Z,100738.31
2022-10-15T04:16:36.371Z,100731.78
2022-10-15T04:19:28.976Z,100751.75
2022-10-15T04:22:07.414Z,100743.19
2022-10-15T04:24:49.162Z,100741.81
2022-10-15T04:27:26.553Z,100742.47
2022-10-15T04:30:00.389Z,100758.50
2022-10-15T04:32:28.233Z,100762.50
2022-10-15T04:34:56.698Z,100765.84
2022-10-15T04:37:39.303Z,100767.28
2022-10-15T04:40:07.712Z,100769.09
2022-10-15T04:42:35.536Z,100780.50
2022-10-15T04:45:03.182Z,100779.97
2022-10-15T04:47:30.658Z,100778.81
2022-10-15T04:50:13.383Z,100768.19
2022-10-15T04:52:59.705Z,100770.22
2022-10-15T04:55:28.909Z,100770.84
2022-10-15T04:57:59.834Z,100773.44
2022-10-15T05:00:30.556Z,100773.72
2022-10-15T05:03:25.970Z,100773.81
2022-10-15T05:06:06.068Z,100779.56
2022-10-15T05:08:35.370Z,100773.00
2022-10-15T05:11:12.157Z,100771.53
2022-10-15T05:13:40.676Z,100758.50
2022-10-15T05:16:23.830Z,100762.38
2022-10-15T05:18:56.415Z,100767.81
2022-10-15T05:21:23.837Z,100765.81
2022-10-15T05:23:55.298Z,100772.06
2022-10-15T05:27:03.050Z,100774.03
2022-10-15T05:29:33.704Z,100761.84
2022-10-15T05:32:01.102Z,100774.53
2022-10-15T05:34:30.719Z,100763.47
2022-10-15T05:37:06.954Z,100764.66
2022-10-15T05:39:34.357Z,100768.81
2022-10-15T05:42:01.836Z,100773.81
2022-10-15T05:44:49.715Z,100781.56
2022-10-15T05:47:17.075Z,100773.22
2022-10-15T05:49:44.553Z,100784.03
2022-10-15T05:52:17.279Z,100789.47
2022-10-15T05:55:06.188Z,100796.22
2022-10-15T05:57:33.603Z,100814.09
2022-10-15T06:00:07.790Z,100814.66
2022-10-15T06:02:41.015Z,100819.97
2022-10-15T06:05:08.842Z,100818.88
2022-10-15T06:07:36.827Z,100813.31
2022-10-15T06:10:06.050Z,100819.78
2022-10-15T06:12:36.097Z,100823.06
2022-10-15T06:15:03.634Z,100823.88
2022-10-15T06:17:31.133Z,100818.41
2022-10-15T06:19:58.759Z,100817.25
2022-10-15T06:22:26.356Z,100823.69
2022-10-15T06:24:53.807Z,100820.59
2022-10-15T06:27:22.237Z,100823.06
2022-10-15T06:29:50.114Z,100820.88
2022-10-15T06:32:18.036Z,100830.63
2022-10-15T06:34:45.512Z,100821.75
2022-10-15T06:37:12.906Z,100827.91
2022-10-15T06:39:40.548Z,100827.56
2022-10-15T06:42:08.021Z,100827.31
2022-10-15T06:44:40.326Z,100819.34
2022-10-15T06:47:08.171Z,100828.69
2022-10-15T06:49:35.816Z,100833.22
2022-10-15T06:52:03.942Z,100837.44
2022-10-15T06:54:31.467Z,100839.00
2022-10-15T06:56:58.891Z,100838.44
2022-10-15T06:59:26.348Z,100835.97
2022-10-15T07:01:55.062Z,100826.78
2022-10-15T07:04:23.575Z,100832.53
2022-10-15T07:06:50.916Z,100827.50
2022-10-15T07:09:20.665Z,100834.25
2022-10-15T07:11:48.195Z,100831.56
2022-10-15T07:14:15.609Z,100834.41
2022-10-15T07:16:43.138Z,100828.94
2022-10-15T07:19:10.854Z,100834.69
2022-10-15T07:21:38.257Z,100837.69
2022-10-15T07:24:06.344Z,100842.03
2022-10-15T07:26:34.410Z,100847.56
2022-10-15T07:29:03.598Z,100854.22
2022-10-15T07:31:31.683Z,100865.22
2022-10-15T07:33:59.608Z,100848.78
2022-10-15T07:36:27.399Z,100854.59
2022-10-15T07:38:55.481Z,100862.16
2022-10-15T07:41:23.502Z,100866.50
2022-10-15T07:43:53.823Z,100864.13
2022-10-15T07:46:21.471Z,100871.94
2022-10-15T07:48:56.269Z,100877.78
2022-10-15T07:51:23.694Z,100882.66
2022-10-15T07:53:51.339Z,100877.38
2022-10-15T07:56:19.781Z,100880.63
2022-10-15T07:58:51.982Z,100892.28
2022-10-15T08:01:21.068Z,100895.97
2022-10-15T08:03:48.606Z,100892.69
2022-10-15T08:06:16.645Z,100895.44
2022-10-15T08:08:44.278Z,100895.19
2022-10-15T08:11:15.391Z,100905.38
2022-10-15T08:13:43.639Z,100905.16
2022-10-15T08:16:13.072Z,100913.28
2022-10-15T08:18:49.489Z,100906.31
2022-10-15T08:21:19.419Z,100904.44
2022-10-15T08:23:47.767Z,100908.69
2022-10-15T08:26:15.298Z,100910.84
2022-10-15T08:28:42.932Z,100899.66
2022-10-15T08:31:10.906Z,100920.38
2022-10-15T08:33:38.427Z,100924.84
2022-10-15T08:36:06.575Z,100915.38
2022-10-15T08:38:34.975Z,100917.81
2022-10-15T08:41:05.352Z,100915.53
2022-10-15T08:43:40.070Z,100916.75
2022-10-15T08:46:28.683Z,100910.88
2022-10-15T08:48:59.799Z,100919.63
2022-10-15T08:51:52.672Z,100912.63
2022-10-15T08:54:20.966Z,100920.25
2022-10-15T08:57:01.332Z,100916.09
2022-10-15T08:59:38.547Z,100921.16
2022-10-15T09:02:08.701Z,100917.66
2022-10-15T09:04:52.575Z,100917.25
2022-10-15T09:07:31.366Z,100918.19
2022-10-15T09:10:28.696Z,100925.22
2022-10-15T09:13:04.614Z,100919.53
2022-10-15T09:15:37.742Z,100918.44
2022-10-15T09:18:09.364Z,100919.19
2022-10-15T09:20:37.856Z,100917.47
2022-10-15T09:23:16.559Z,100916.38
2022-10-15T09:25:49.523Z,100911.06
2022-10-15T09:28:24.485Z,100922.84
2022-10-15T09:30:56.403Z,100922.22
2022-10-15T09:33:48.242Z,100916.56
2022-10-15T09:36:19.054Z,100922.31
2022-10-15T09:39:11.664Z,100929.50
2022-10-15T09:42:26.139Z,100921.16
2022-10-15T09:45:02.424Z,100930.25
2022-10-15T09:47:44.108Z,100928.88
2022-10-15T09:50:14.930Z,100929.25
2022-10-15T09:53:00.995Z,100927.56
2022-10-15T09:55:42.519Z,100924.66
2022-10-15T09:58:24.927Z,100921.09
2022-10-15T10:01:05.018Z,100921.16
2022-10-15T10:03:37.025Z,100919.78
2022-10-15T10:06:13.966Z,100914.31
2022-10-15T10:08:59.550Z,100924.78
2022-10-15T10:11:46.086Z,100924.47
2022-10-15T10:14:25.546Z,100921.72
2022-10-15T10:17:06.543Z,100928.47
2022-10-15T10:19:34.135Z,100929.75
2022-10-15T10:22:17.847Z,100921.91
2022-10-15T10:24:48.552Z,100925.22
2022-10-15T10:27:23.525Z,100926.78
2022-10-15T10:30:00.682Z,100924.38
2022-10-15T10:32:33.991Z,100921.91
2022-10-15T10:35:03.900Z,100936.88
2022-10-15T10:37:42.582Z,100929.72
2022-10-15T10:40:23.783Z,100928.97
2022-10-15T10:43:11.291Z,100929.22
2022-10-15T10:45:38.902Z,100926.25
2022-10-15T10:48:19.964Z,100928.34
2022-10-15T10:50:47.717Z,100928.63
2022-10-15T10:53:24.296Z,100927.69
2022-10-15T10:55:55.564Z,100915.09
2022-10-15T10:58:29.295Z,100923.38
2022-10-15T11:00:57.944Z,100920.16
2022-10-15T11:03:41.044Z,100920.97
2022-10-15T11:06:39.164Z,100917.97
2022-10-15T11:09:20.689Z,100914.38
2022-10-15T11:12:14.324Z,100909.97
2022-10-15T11:15:02.665Z,100902.31
2022-10-15T11:18:08.417Z,100905.66
2022-10-15T11:21:00.580Z,100903.34
2022-10-15T11:24:16.624Z,100905.41
2022-10-15T11:27:24.460Z,100894.13
2022-10-15T11:30:08.715Z,100904.88
2022-10-15T11:33:06.338Z,100904.03
2022-10-15T11:36:05.181Z,100899.50
2022-10-15T11:38:32.601Z,100898.19
2022-10-15T11:41:27.832Z,100897.66
2022-10-15T11:43:55.405Z,100891.28
2022-10-15T11:46:44.182Z,100891.19
2022-10-15T11:49:16.688Z,100887.84
2022-10-15T11:52:13.615Z,100877.03
2022-10-15T11:54:54.428Z,100871.63
2022-10-15T11:57:25.292Z,100868.81
2022-10-15T11:59:52.652Z,100863.25
2022-10-15T12:02:30.838Z,100870.84
2022-10-15T12:05:04.924Z,100869.69
2022-10-15T12:07:49.901Z,100871.19
2022-10-15T12:10:49.616Z,100871.13
2022-10-15T12:13:23.696Z,100869.69
2022-10-15T12:16:00.831Z,100866.88
2022-10-15T12:18:38.509Z,100871.72
2022-10-15T12:21:30.544Z,100863.09
2022-10-15T12:23:58.067Z,100859.03
2022-10-15T12:26:25.407Z,100860.31
2022-10-15T12:28:58.319Z,100859.63
2022-10-15T12:31:53.844Z,100857.63
2022-10-15T12:34:28.683Z,100848.81
2022-10-15T12:37:06.543Z,100850.28
2022-10-15T12:42:31.041Z,100841.63
2022-10-15T12:45:03.059Z,100845.97
2022-10-15T12:47:49.305Z,100840.16
2022-10-15T12:50:19.563Z,100848.53
2022-10-15T12:52:49.762Z,100839.00
2022-10-15T12:55:25.151Z,100840.53
2022-10-15T12:57:53.883Z,100836.91
2022-10-15T13:00:33.758Z,100841.97
2022-10-15T13:03:21.645Z,100829.78
2022-10-15T13:05:53.091Z,100828.06
2022-10-15T13:08:32.335Z,100826.66
2022-10-15T13:11:01.017Z,100820.97
2022-10-15T13:13:32.303Z,100819.47
2022-10-15T13:16:02.440Z,100815.19
2022-10-15T13:18:31.502Z,100810.91
2022-10-15T13:23:33.133Z,100814.91
2022-10-15T13:26:16.620Z,100815.00
2022-10-15T13:28:45.565Z,100812.06
2022-10-15T13:31:19.473Z,100812.28
2022-10-15T13:33:50.524Z,100807.97
2022-10-15T13:36:26.331Z,100809.78
2022-10-15T13:39:00.102Z,100805.94
2022-10-15T13:41:33.240Z,100804.41
2022-10-15T13:44:02.559Z,100821.03
2022-10-15T13:46:33.047Z,100820.16
2022-10-15T13:49:02.986Z,100806.94
2022-10-15T13:51:38.604Z,100812.56
2022-10-15T13:54:12.589Z,100813.88
2022-10-15T13:56:49.488Z,100808.41
2022-10-15T13:59:19.425Z,100809.25
2022-10-15T14:01:51.474Z,100812.28
2022-10-15T14:04:22.872Z,100811.69
2022-10-15T14:06:57.082Z,100804.63
2022-10-15T14:09:37.158Z,100810.88
2022-10-15T14:12:08.765Z,100815.56
2022-10-15T14:14:42.073Z,100814.66
2022-10-15T14:17:28.484Z,100822.63
2022-10-15T14:20:25.843Z,100800.31
2022-10-15T14:22:51.497Z,100805.47
2022-10-15T14:25:25.098Z,100811.44
2022-10-15T14:27:52.963Z,100812.50
2022-10-15T14:30:31.649Z,100815.53
2022-10-15T14:32:59.321Z,100816.22
2022-10-15T14:35:29.468Z,100814.88
2022-10-15T14:38:10.321Z,100817.69
2022-10-15T14:40:47.941Z,100816.69
2022-10-15T14:43:18.321Z,100808.72
2022-10-15T14:45:51.912Z,100816.88
2022-10-15T14:48:23.975Z,100804.72
2022-10-15T14:50:52.060Z,100813.69
2022-10-15T14:53:24.617Z,100807.09
2022-10-15T14:55:57.856Z,100814.03
2022-10-15T14:58:27.861Z,100810.31
2022-10-15T15:00:58.679Z,100813.44
2022-10-15T15:03:31.993Z,100809.75
2022-10-15T15:05:59.597Z,100799.94
2022-10-15T15:08:27.199Z,100810.47
2022-10-15T15:10:57.679Z,100806.00
2022-10-15T15:13:27.839Z,100805.81
2022-10-15T15:15:55.461Z,100809.25
2022-10-15T15:18:23.397Z,100809.88
2022-10-15T15:20:51.508Z,100809.09
2022-10-15T15:23:25.425Z,100808.13
2022-10-15T15:25:54.313Z,100804.97
2022-10-15T15:28:25.362Z,100810.56
2022-10-15T15:31:01.603Z,100815.09
2022-10-15T15:33:29.620Z,100811.88
2022-10-15T15:36:12.322Z,100817.59
2022-10-15T15:38:40.379Z,100815.16
2022-10-15T15:41:16.452Z,100815.28
2022-10-15T15:43:45.702Z,100811.31
2022-10-15T15:46:13.689Z,100816.56
2022-10-15T15:48:41.337Z,100813.53
2022-10-15T15:51:11.986Z,100823.38
2022-10-15T15:53:39.527Z,100824.97
2022-10-15T15:56:07.229Z,100821.88
2022-10-15T15:58:34.766Z,100812.03
2022-10-15T16:01:02.328Z,100811.97
2022-10-15T16:03:29.892Z,100820.66
2022-10-15T16:05:57.421Z,100824.41
2022-10-15T16:08:25.021Z,100823.19
2022-10-15T16:10:52.721Z,100837.13
2022-10-15T16:13:20.264Z,100827.53
2022-10-15T16:15:47.943Z,100838.69
2022-10-15T16:18:15.540Z,100831.16
2022-10-15T16:20:47.719Z,100835.72
2022-10-15T16:23:16.807Z,100840.63
2022-10-15T16:25:44.603Z,100851.84
2022-10-15T16:28:12.150Z,100849.13
2022-10-15T16:30:39.766Z,100862.94
2022-10-15T16:35:36.560Z,100860.28
2022-10-15T16:38:04.100Z,100865.50
2022-10-15T16:40:32.187Z,100864.53
2022-10-15T16:42:59.806Z,100871.00
2022-10-15T16:45:27.313Z,100878.06
2022-10-15T16:47:55.054Z,100889.69
2022-10-15T16:50:22.985Z,100885.16
2022-10-15T16:52:50.601Z,100886.53
2022-10-15T16:55:18.167Z,100891.97
2022-10-15T16:57:45.729Z,100895.16
2022-10-15T17:00:13.588Z,100904.78
2022-10-15T17:02:41.224Z,100909.47
2022-10-15T17:05:08.973Z,100915.25
2022-10-15T17:07:36.408Z,100922.84
2022-10-15T17:10:04.385Z,100911.91
2022-10-15T17:12:31.881Z,100928.00
2022-10-15T17:14:59.437Z,100925.22
2022-10-15T17:17:30.630Z,100930.28
2022-10-15T17:19:58.055Z,100936.41
2022-10-15T17:22:26.491Z,100933.66
2022-10-15T17:24:55.275Z,100950.06
2022-10-15T17:27:22.591Z,100947.50
2022-10-15T17:29:50.001Z,100936.41
2022-10-15T17:32:17.447Z,100955.09
2022-10-15T17:34:44.843Z,100960.84
2022-10-15T17:37:14.411Z,100956.31
2022-10-15T17:39:41.928Z,100968.75
2022-10-15T17:42:09.394Z,100969.69
2022-10-15T17:44:36.954Z,100967.75
2022-10-15T17:47:04.380Z,100972.84
2022-10-15T17:49:31.886Z,100976.53
2022-10-15T17:51:59.356Z,100982.31
2022-10-15T17:54:26.878Z,100979.44
2022-10-15T17:56:54.249Z,100982.13
2022-10-15T17:59:21.694Z,100984.31
2022-10-15T18:02:04.483Z,100983.25
2022-10-15T18:04:39.144Z,100977.06
2022-10-15T18:07:06.797Z,100992.97
2022-10-15T18:09:34.465Z,100993.25
2022-10-15T18:12:03.473Z,100991.91
2022-10-15T18:14:34.234Z,100998.47
2022-10-15T18:17:01.885Z,101007.59
2022-10-15T18:19:29.869Z,101014.41
2022-10-15T18:21:57.780Z,101012.38
2022-10-15T18:24:25.396Z,101008.91
2022-10-15T18:26:53.101Z,101015.13
2022-10-15T18:29:20.737Z,101018.06
2022-10-15T18:31:50.274Z,101019.50
2022-10-15T18:34:21.617Z,101020.63
2022-10-15T18:36:49.043Z,101026.78
2022-10-15T18:39:16.436Z,101029.22
2022-10-15T18:44:16.870Z,101023.59
2022-10-15T18:46:45.525Z,101036.47
2022-10-15T18:49:15.280Z,101031.75
2022-10-15T18:51:43.243Z,101040.81
2022-10-15T18:54:11.108Z,101033.03
2022-10-15T18:56:39.453Z,101036.47
2022-10-15T18:59:07.005Z,101037.78
2022-10-15T19:01:36.983Z,101049.78
2022-10-15T19:04:12.400Z,101036.09
2022-10-15T19:06:45.268Z,101051.16
2022-10-15T19:09:21.136Z,101051.88
2022-10-15T19:11:50.804Z,101047.94
2022-10-15T19:14:18.423Z,101046.81
2022-10-15T19:16:46.920Z,101048.44
2022-10-15T19:19:17.539Z,101040.59
2022-10-15T19:21:46.643Z,101044.84
2022-10-15T19:24:15.324Z,101050.72
2022-10-15T19:26:43.402Z,101050.88
2022-10-15T19:29:11.204Z,101045.22
2022-10-15T19:31:42.471Z,101049.91
2022-10-15T19:34:11.396Z,101051.38
2022-10-15T19:36:42.116Z,101051.75
2022-10-15T19:39:14.608Z,101051.09
2022-10-15T19:41:44.122Z,101049.75
2022-10-15T19:44:13.992Z,101046.44
2022-10-15T19:46:41.633Z,101055.78
2022-10-15T19:49:11.635Z,101054.13
2022-10-15T19:51:39.348Z,101047.97
2022-10-15T19:54:07.188Z,101055.16
2022-10-15T19:56:35.022Z,101061.16
2022-10-15T19:59:04.981Z,101066.84
2022-10-15T20:01:33.561Z,101065.22
2022-10-15T20:04:05.790Z,101058.00
2022-10-15T20:06:36.436Z,101069.34
2022-10-15T20:09:05.156Z,101072.75
2022-10-15T20:11:33.124Z,101073.41
2022-10-15T20:14:01.515Z,101063.94
2022-10-15T20:16:32.800Z,101076.34
2022-10-15T20:19:05.607Z,101076.94
2022-10-15T20:21:33.173Z,101070.75
2022-10-15T20:24:04.494Z,101085.78
2022-10-15T20:26:32.727Z,101085.34
2022-10-15T20:29:00.362Z,101076.66
2022-10-15T20:31:32.791Z,101084.66
2022-10-15T20:34:01.484Z,101090.00
2022-10-15T20:36:29.837Z,101094.88
2022-10-15T20:38:59.435Z,101110.13
2022-10-15T20:41:28.433Z,101098.81
2022-10-15T20:43:56.541Z,101116.78
2022-10-15T20:46:35.598Z,101119.19
2022-10-15T20:49:09.381Z,101124.94
2022-10-15T20:51:40.850Z,101125.19
2022-10-15T20:54:09.467Z,101128.38
2022-10-15T20:56:37.094Z,101137.13
2022-10-15T20:59:05.302Z,101146.00
2022-10-15T21:01:34.314Z,101138.91
2022-10-15T21:04:02.625Z,101154.63
2022-10-15T21:06:31.028Z,101148.00
2022-10-15T21:08:58.774Z,101154.59
2022-10-15T21:11:26.459Z,101154.28
2022-10-15T21:13:53.906Z,101163.22
2022-10-15T21:16:24.520Z,101161.53
2022-10-15T21:18:54.991Z,101172.06
2022-10-15T21:21:22.457Z,101175.47
2022-10-15T21:23:50.088Z,101177.69
2022-10-15T21:26:19.024Z,101173.69
2022-10-15T21:28:47.028Z,101183.19
2022-10-15T21:31:16.468Z,101174.19
2022-10-15T21:33:44.917Z,101173.50
2022-10-15T21:36:16.819Z,101189.41
2022-10-15T21:38:44.263Z,101195.03
2022-10-15T21:41:11.833Z,101194.63
2022-10-15T21:43:39.506Z,101195.38
2022-10-15T21:46:09.891Z,101194.34
2022-10-15T21:48:38.582Z,101196.44
2022-10-15T21:51:11.254Z,101202.06
2022-10-15T21:53:38.877Z,101202.28
2022-10-15T21:56:08.144Z,101194.44
2022-10-15T21:58:38.080Z,101199.59
2022-10-15T22:01:22.127Z,101194.69
2022-10-15T22:03:51.276Z,101198.59
2022-10-15T22:06:20.494Z,101207.13
2022-10-15T22:08:48.392Z,101201.91
2022-10-15T22:11:19.470Z,101204.16
2022-10-15T22:13:49.705Z,101207.81
2022-10-15T22:16:18.374Z,101202.53
2022-10-15T22:18:46.276Z,101219.31
2022-10-15T22:21:20.898Z,101220.06
2022-10-15T22:23:53.654Z,101217.25
2022-10-15T22:26:24.116Z,101219.16
2022-10-15T22:28:56.479Z,101220.94
2022-10-15T22:31:24.774Z,101224.38
2022-10-15T22:33:52.802Z,101218.31
2022-10-15T22:36:23.692Z,101228.66
2022-10-15T22:41:24.907Z,101230.31
2022-10-15T22:43:52.444Z,101234.06
2022-10-15T22:46:20.070Z,101230.50
2022-10-15T22:48:49.466Z,101230.81
2022-10-15T22:51:17.709Z,101227.44
2022-10-15T22:53:45.256Z,101235.97
2022-10-15T22:56:15.763Z,101227.31
2022-10-15T22:58:43.723Z,101227.53
2022-10-15T23:01:23.013Z,101232.00
2022-10-15T23:03:53.681Z,101235.53
2022-10-15T23:06:22.532Z,101229.88
2022-10-15T23:08:50.539Z,101231.66
2022-10-15T23:11:24.393Z,101238.03
2022-10-15T23:13:56.963Z,101231.25
2022-10-15T23:16:30.695Z,101226.84
2022-10-15T23:19:03.906Z,101229.38
2022-10-15T23:21:42.610Z,101232.34
2022-10-15T23:24:11.211Z,101228.03
2022-10-15T23:26:39.846Z,101239.97
2022-10-15T23:29:12.990Z,101225.81
2022-10-15T23:31:40.911Z,101235.63
2022-10-15T23:34:14.443Z,101236.28
2022-10-15T23:36:43.252Z,101243.53
2022-10-15T23:39:13.485Z,101245.50
2022-10-15T23:41:41.477Z,101253.69
2022-10-15T23:44:09.290Z,101254.94
2022-10-15T23:46:36.895Z,101248.69
2022-10-15T23:49:04.906Z,101244.34
2022-10-15T23:51:34.762Z,101251.59
2022-10-15T23:54:04.001Z,101256.31
2022-10-15T23:56:32.125Z,101254.81
2022-10-15T23:59:00.455Z,101248.34
